Time;durP1;ratioP1;P1;durP2;ratioP2;P2;SDS_P1;SDS_P2;PMS_P1;PMS_P2;Temp;Humidity;BMP_temperature;BMP_pressure;BME280_temperature;BME280_humidity;BME280_pressure;Samples;Min_cycle;Max_cycle;Signal;HPM_P1;HPM_P2
2022/02/20 00:00:16;;;;;;;;;;;22.60;33.00;;;;;;5092806;28;19980;-71
2022/02/20 00:02:43;;;;;;;;;;;22.60;33.00;;;;;;5090227;28;20381;-71
2022/02/20 00:05:10;;;;;;;;;;;22.60;33.00;;;;;;5092681;28;19924;-71
2022/02/20 00:07:37;;;;;;;;;;;22.50;33.00;;;;;;5090582;28;19924;-72
2022/02/20 00:10:29;;;;;;;;;;;22.50;33.00;;;;;;5092333;28;19946;-71
2022/02/20 00:12:57;;;;;;;;;;;22.50;33.00;;;;;;5089463;28;19931;-71
2022/02/20 00:15:26;;;;;;;;;;;22.50;33.00;;;;;;5091928;28;20203;-71
2022/02/20 00:17:54;;;;;;;;;;;22.50;33.00;;;;;;5089730;28;19924;-71
2022/02/20 00:20:21;;;;;;;;;;;22.50;33.00;;;;;;5092971;28;19976;-71
2022/02/20 00:22:49;;;;;;;;;;;22.50;33.00;;;;;;5071977;28;19924;-71
2022/02/20 00:25:17;;;;;;;;;;;22.50;33.00;;;;;;5092897;28;19960;-71
2022/02/20 00:27:47;;;;;;;;;;;22.60;33.00;;;;;;5090003;28;19932;-71
2022/02/20 00:30:14;;;;;;;;;;;22.60;33.10;;;;;;5092401;28;19935;-71
2022/02/20 00:32:42;;;;;;;;;;;22.60;33.00;;;;;;5090088;28;19928;-71
2022/02/20 00:35:09;;;;;;;;;;;22.60;33.00;;;;;;5092132;28;20031;-71
2022/02/20 00:37:36;;;;;;;;;;;22.60;33.00;;;;;;5089607;28;20064;-71
2022/02/20 00:40:03;;;;;;;;;;;22.60;33.00;;;;;;5092139;28;19928;-71
2022/02/20 00:42:30;;;;;;;;;;;22.60;33.00;;;;;;5089640;28;20013;-71
2022/02/20 00:48:02;;;;;;;;;;;22.60;33.00;;;;;;5089443;28;20270;-71
2022/02/20 00:50:29;;;;;;;;;;;22.50;33.00;;;;;;5092173;28;20377;-71
2022/02/20 00:52:56;;;;;;;;;;;22.50;33.00;;;;;;5088989;28;19977;-71
2022/02/20 00:55:25;;;;;;;;;;;22.50;33.00;;;;;;5091996;28;19924;-71
2022/02/20 00:57:53;;;;;;;;;;;22.50;33.00;;;;;;5089026;28;20366;-71
2022/02/20 01:00:20;;;;;;;;;;;22.50;33.00;;;;;;5091924;28;19924;-72
2022/02/20 01:02:47;;;;;;;;;;;22.50;33.00;;;;;;5089459;28;19928;-71
2022/02/20 01:05:14;;;;;;;;;;;22.50;33.10;;;;;;5092044;28;19967;-71
2022/02/20 01:07:41;;;;;;;;;;;22.50;33.00;;;;;;5088200;28;19924;-72
2022/02/20 01:13:00;;;;;;;;;;;22.50;33.10;;;;;;5089000;28;19928;-71
2022/02/20 01:15:28;;;;;;;;;;;22.50;33.10;;;;;;5091523;28;19924;-71
2022/02/20 01:17:54;;;;;;;;;;;22.50;33.10;;;;;;5088079;28;19928;-71
2022/02/20 01:20:21;;;;;;;;;;;22.50;33.10;;;;;;5091490;28;19924;-71
2022/02/20 01:22:48;;;;;;;;;;;22.50;33.10;;;;;;5088741;28;20234;-71
2022/02/20 01:25:15;;;;;;;;;;;22.50;33.10;;;;;;5091090;28;19928;-71
2022/02/20 01:27:42;;;;;;;;;;;22.50;33.10;;;;;;5089129;28;20078;-74
2022/02/20 01:30:10;;;;;;;;;;;22.50;33.10;;;;;;5091226;28;19927;-71
2022/02/20 01:32:37;;;;;;;;;;;22.50;33.10;;;;;;5088607;28;19971;-71
2022/02/20 01:37:55;;;;;;;;;;;22.50;33.10;;;;;;5088220;28;19924;-71
2022/02/20 01:40:22;;;;;;;;;;;22.50;33.10;;;;;;5091133;28;19924;-71
2022/02/20 01:42:49;;;;;;;;;;;22.40;33.10;;;;;;5088067;28;19924;-71
2022/02/20 01:45:16;;;;;;;;;;;22.50;33.10;;;;;;5091272;28;19928;-71
2022/02/20 01:47:43;;;;;;;;;;;22.50;33.10;;;;;;5088460;28;20171;-71
2022/02/20 01:50:11;;;;;;;;;;;22.50;33.20;;;;;;5090322;28;20369;-71
2022/02/20 01:52:38;;;;;;;;;;;22.50;33.20;;;;;;5088546;28;19993;-71
2022/02/20 01:55:09;;;;;;;;;;;22.50;33.20;;;;;;5090469;28;20365;-71
2022/02/20 01:57:36;;;;;;;;;;;22.50;33.10;;;;;;5088408;28;19928;-71
2022/02/20 02:02:55;;;;;;;;;;;22.50;33.10;;;;;;5087852;28;19924;-71
2022/02/20 02:05:22;;;;;;;;;;;22.50;33.10;;;;;;5072601;28;20343;-71
2022/02/20 02:07:50;;;;;;;;;;;22.50;33.10;;;;;;5087583;28;19928;-73
2022/02/20 02:10:17;;;;;;;;;;;22.50;33.10;;;;;;5090760;28;19984;-71
2022/02/20 02:12:44;;;;;;;;;;;22.50;33.10;;;;;;5088050;28;20014;-71
2022/02/20 02:15:12;;;;;;;;;;;22.50;33.10;;;;;;5090221;28;19967;-71
2022/02/20 02:17:39;;;;;;;;;;;22.50;33.10;;;;;;5088113;28;20372;-71
2022/02/20 02:20:07;;;;;;;;;;;22.50;33.10;;;;;;5089928;28;19957;-71
2022/02/20 02:22:34;;;;;;;;;;;22.50;33.10;;;;;;5088156;28;19928;-71
2022/02/20 02:28:05;;;;;;;;;;;22.50;33.10;;;;;;5087689;28;19928;-71
2022/02/20 02:30:32;;;;;;;;;;;22.50;33.20;;;;;;5090729;28;19982;-71
2022/02/20 02:32:59;;;;;;;;;;;22.40;33.10;;;;;;5087589;28;19928;-71
2022/02/20 02:35:26;;;;;;;;;;;22.40;33.10;;;;;;5090790;28;19928;-71
2022/02/20 02:37:54;;;;;;;;;;;22.50;33.20;;;;;;5087138;28;19964;-74
2022/02/20 02:40:21;;;;;;;;;;;22.50;33.20;;;;;;5089971;28;19932;-71
2022/02/20 02:42:48;;;;;;;;;;;22.40;33.10;;;;;;5087852;28;19945;-71
2022/02/20 02:45:15;;;;;;;;;;;22.40;33.10;;;;;;5089932;28;19924;-71
2022/02/20 02:47:46;;;;;;;;;;;22.40;33.20;;;;;;5087622;28;19928;-71
2022/02/20 02:50:32;;;;;;;;;;;22.40;33.20;;;;;;5090139;28;19928;-71
2022/02/20 02:52:59;;;;;;;;;;;22.40;33.20;;;;;;5086981;28;19989;-71
2022/02/20 02:55:26;;;;;;;;;;;22.40;33.20;;;;;;5090279;28;19971;-71
2022/02/20 02:57:53;;;;;;;;;;;22.40;33.20;;;;;;5087390;28;19971;-71
2022/02/20 03:00:19;;;;;;;;;;;22.40;33.20;;;;;;5089810;28;19950;-71
2022/02/20 03:02:47;;;;;;;;;;;22.40;33.20;;;;;;5086801;28;20273;-71
2022/02/20 03:05:13;;;;;;;;;;;22.40;33.20;;;;;;5089827;28;19954;-71
2022/02/20 03:07:42;;;;;;;;;;;22.40;33.20;;;;;;5087309;28;19954;-71
2022/02/20 03:10:10;;;;;;;;;;;22.40;33.20;;;;;;5089531;28;19924;-71
2022/02/20 03:12:37;;;;;;;;;;;22.40;33.20;;;;;;5087355;28;19927;-70
2022/02/20 03:17:58;;;;;;;;;;;22.40;33.20;;;;;;5087252;28;19974;-71
2022/02/20 03:20:25;;;;;;;;;;;22.40;33.30;;;;;;5089748;28;20251;-71
2022/02/20 03:22:52;;;;;;;;;;;22.40;33.20;;;;;;5086964;28;19982;-71
2022/02/20 03:25:19;;;;;;;;;;;22.40;33.30;;;;;;5089353;28;19985;-71
2022/02/20 03:27:46;;;;;;;;;;;22.40;33.30;;;;;;5069005;28;19971;-71
2022/02/20 03:30:13;;;;;;;;;;;22.40;33.40;;;;;;5071726;28;19924;-71
2022/02/20 03:32:40;;;;;;;;;;;22.40;33.30;;;;;;5090769;28;19924;-71
2022/02/20 03:35:08;;;;;;;;;;;22.40;33.20;;;;;;5093765;28;20335;-72
2022/02/20 03:37:35;;;;;;;;;;;22.40;33.20;;;;;;5091672;28;20356;-71
2022/02/20 03:40:33;;;;;;;;;;;22.40;33.20;;;;;;5092881;28;20114;-71
2022/02/20 03:43:00;;;;;;;;;;;22.40;33.20;;;;;;5090742;28;19932;-71
2022/02/20 03:45:28;;;;;;;;;;;22.40;33.20;;;;;;5093187;28;19964;-71
2022/02/20 03:47:55;;;;;;;;;;;22.40;33.20;;;;;;5090864;28;19975;-71
2022/02/20 03:50:23;;;;;;;;;;;22.50;33.30;;;;;;5093339;28;19970;-71
2022/02/20 03:52:50;;;;;;;;;;;22.40;33.20;;;;;;5090697;28;20266;-71
2022/02/20 03:55:17;;;;;;;;;;;22.40;33.20;;;;;;5093088;28;19959;-71
2022/02/20 03:57:45;;;;;;;;;;;22.40;33.20;;;;;;5090598;28;20381;-71
2022/02/20 04:00:16;;;;;;;;;;;22.40;33.20;;;;;;5093130;28;19964;-72
2022/02/20 04:02:43;;;;;;;;;;;22.40;33.20;;;;;;5090236;28;19989;-71
2022/02/20 04:05:12;;;;;;;;;;;22.40;33.20;;;;;;5092988;28;19928;-72
2022/02/20 04:07:39;;;;;;;;;;;22.40;33.30;;;;;;5090623;28;19923;-71
2022/02/20 04:10:07;;;;;;;;;;;22.40;33.30;;;;;;5092398;28;19932;-71
2022/02/20 04:12:34;;;;;;;;;;;22.40;33.30;;;;;;5072576;28;20217;-71
2022/02/20 04:18:06;;;;;;;;;;;22.40;33.30;;;;;;5089947;28;19977;-71
2022/02/20 04:20:33;;;;;;;;;;;22.40;33.30;;;;;;5092704;28;20104;-71
2022/02/20 04:23:00;;;;;;;;;;;22.40;33.30;;;;;;5089963;28;19924;-71
2022/02/20 04:25:27;;;;;;;;;;;22.40;33.30;;;;;;5092907;28;19931;-71
2022/02/20 04:27:54;;;;;;;;;;;22.40;33.30;;;;;;5089888;28;19924;-71
2022/02/20 04:30:21;;;;;;;;;;;22.40;33.40;;;;;;5092827;28;19960;-71
2022/02/20 04:32:48;;;;;;;;;;;22.40;33.30;;;;;;5089428;28;19945;-71
2022/02/20 04:35:15;;;;;;;;;;;22.40;33.40;;;;;;5092582;28;19982;-71
2022/02/20 04:37:42;;;;;;;;;;;22.30;33.30;;;;;;5071623;28;19985;-71
2022/02/20 04:40:30;;;;;;;;;;;22.30;33.30;;;;;;5092067;28;20019;-71
2022/02/20 04:42:57;;;;;;;;;;;22.30;33.30;;;;;;5089494;28;19928;-71
2022/02/20 04:45:24;;;;;;;;;;;22.30;33.30;;;;;;5074298;28;20010;-71
2022/02/20 04:47:51;;;;;;;;;;;22.30;33.30;;;;;;5089655;28;19995;-71
2022/02/20 04:50:17;;;;;;;;;;;22.30;33.30;;;;;;5092522;28;19970;-72
2022/02/20 04:52:45;;;;;;;;;;;22.30;33.30;;;;;;5089796;28;19943;-71
2022/02/20 04:55:12;;;;;;;;;;;22.30;33.30;;;;;;5091730;28;19935;-72
2022/02/20 04:57:41;;;;;;;;;;;22.30;33.30;;;;;;5089557;28;19985;-72
2022/02/20 05:00:10;;;;;;;;;;;22.30;33.30;;;;;;5091800;28;19930;-72
2022/02/20 05:02:37;;;;;;;;;;;22.30;33.40;;;;;;5089603;28;19946;-72
2022/02/20 05:07:58;;;;;;;;;;;22.30;33.40;;;;;;5089163;28;19924;-72
2022/02/20 05:10:25;;;;;;;;;;;22.30;33.30;;;;;;5091818;28;19970;-71
2022/02/20 05:12:52;;;;;;;;;;;22.30;33.40;;;;;;5088999;28;19924;-71
2022/02/20 05:15:19;;;;;;;;;;;22.40;33.40;;;;;;5091392;28;19924;-71
2022/02/20 05:17:46;;;;;;;;;;;22.40;33.40;;;;;;5089068;28;19979;-71
2022/02/20 05:20:13;;;;;;;;;;;22.30;33.30;;;;;;5091466;28;19924;-71
2022/02/20 05:22:40;;;;;;;;;;;22.40;33.40;;;;;;5088919;28;20424;-71
2022/02/20 05:25:07;;;;;;;;;;;22.40;33.40;;;;;;5091242;28;19928;-72
2022/02/20 05:27:34;;;;;;;;;;;22.40;33.40;;;;;;5089157;28;19985;-72
2022/02/20 05:30:34;;;;;;;;;;;22.40;33.40;;;;;;5091000;28;19966;-72
2022/02/20 05:33:01;;;;;;;;;;;22.40;33.40;;;;;;5088434;28;20092;-72
2022/02/20 05:35:28;;;;;;;;;;;22.30;33.30;;;;;;5091332;28;19932;-72
2022/02/20 05:37:55;;;;;;;;;;;22.30;33.30;;;;;;5088511;28;19924;-71
2022/02/20 05:40:22;;;;;;;;;;;22.30;33.40;;;;;;5091052;28;20369;-71
2022/02/20 05:42:51;;;;;;;;;;;22.30;33.40;;;;;;5088563;28;20369;-72
2022/02/20 05:45:18;;;;;;;;;;;22.30;33.40;;;;;;5091076;28;19924;-72
2022/02/20 05:47:45;;;;;;;;;;;22.30;33.40;;;;;;5088770;28;20233;-71
2022/02/20 05:50:12;;;;;;;;;;;22.30;33.40;;;;;;5090773;28;19928;-71
2022/02/20 05:52:39;;;;;;;;;;;22.30;33.40;;;;;;5070509;28;20577;-71
2022/02/20 05:57:58;;;;;;;;;;;22.30;33.40;;;;;;5087944;28;19928;-71
2022/02/20 06:00:26;;;;;;;;;;;22.30;33.40;;;;;;5090890;28;19924;-72
2022/02/20 06:02:53;;;;;;;;;;;22.30;33.40;;;;;;5088017;28;20446;-71
2022/02/20 06:05:20;;;;;;;;;;;22.30;33.40;;;;;;5090937;28;19928;-72
2022/02/20 06:07:47;;;;;;;;;;;22.30;33.40;;;;;;5087831;28;20438;-71
2022/02/20 06:10:14;;;;;;;;;;;22.30;33.30;;;;;;5090863;28;19928;-72
2022/02/20 06:12:43;;;;;;;;;;;22.30;33.20;;;;;;5087936;28;20018;-71
2022/02/20 06:15:12;;;;;;;;;;;22.30;33.20;;;;;;5090385;28;19978;-71
2022/02/20 06:17:39;;;;;;;;;;;22.30;33.20;;;;;;5088105;28;19924;-71
2022/02/20 06:20:08;;;;;;;;;;;22.30;33.20;;;;;;5089992;28;19924;-71
2022/02/20 06:22:35;;;;;;;;;;;22.30;33.10;;;;;;5088234;28;20049;-71
2022/02/20 06:25:03;;;;;;;;;;;22.40;33.10;;;;;;5090046;28;20280;-71
2022/02/20 06:27:30;;;;;;;;;;;22.40;32.90;;;;;;5087850;28;20009;-71
2022/02/20 06:30:17;;;;;;;;;;;22.40;32.80;;;;;;5090326;28;20375;-71
2022/02/20 06:32:44;;;;;;;;;;;22.50;32.80;;;;;;5087750;28;19927;-71
2022/02/20 06:35:11;;;;;;;;;;;22.50;32.70;;;;;;5090213;28;19924;-71
2022/02/20 06:37:38;;;;;;;;;;;22.60;32.70;;;;;;5087579;28;19932;-71
2022/02/20 06:40:31;;;;;;;;;;;22.70;32.60;;;;;;5089366;28;19924;-72
2022/02/20 06:42:58;;;;;;;;;;;22.80;32.50;;;;;;5087576;28;19981;-72
2022/02/20 06:45:25;;;;;;;;;;;22.80;32.40;;;;;;5090362;28;19924;-72
2022/02/20 06:47:52;;;;;;;;;;;22.90;32.30;;;;;;5087838;28;19974;-72
2022/02/20 06:50:19;;;;;;;;;;;22.90;32.20;;;;;;5089895;28;20142;-72
2022/02/20 06:52:46;;;;;;;;;;;23.00;32.20;;;;;;5087441;28;19967;-72
2022/02/20 06:55:13;;;;;;;;;;;23.10;32.10;;;;;;5089983;28;20331;-72
2022/02/20 06:57:40;;;;;;;;;;;23.20;32.00;;;;;;5087490;28;20281;-71
2022/02/20 07:00:10;;;;;;;;;;;23.20;32.00;;;;;;5089680;28;20551;-72
2022/02/20 07:02:37;;;;;;;;;;;23.30;31.90;;;;;;5086960;28;19982;-72
2022/02/20 07:07:59;;;;;;;;;;;23.40;31.80;;;;;;5091490;28;20047;-73
2022/02/20 07:10:27;;;;;;;;;;;23.40;31.70;;;;;;5094071;28;19924;-72
2022/02/20 07:12:54;;;;;;;;;;;23.50;31.70;;;;;;5091445;28;19956;-71
2022/02/20 07:15:21;;;;;;;;;;;23.50;31.60;;;;;;5093969;28;20307;-71
2022/02/20 07:17:48;;;;;;;;;;;23.60;31.50;;;;;;5091403;28;19982;-72
2022/02/20 07:20:15;;;;;;;;;;;23.60;31.40;;;;;;5093801;28;19977;-72
2022/02/20 07:22:42;;;;;;;;;;;23.70;31.40;;;;;;5091320;28;19924;-72
2022/02/20 07:25:09;;;;;;;;;;;23.70;31.30;;;;;;5093561;28;20015;-72
2022/02/20 07:27:40;;;;;;;;;;;23.80;31.30;;;;;;5091148;28;20032;-72
2022/02/20 07:33:04;;;;;;;;;;;23.80;31.10;;;;;;5090834;28;19990;-72
2022/02/20 07:35:31;;;;;;;;;;;23.90;31.10;;;;;;5093825;28;19973;-72
2022/02/20 07:37:59;;;;;;;;;;;23.90;31.00;;;;;;5091144;28;19997;-72
2022/02/20 07:40:27;;;;;;;;;;;23.90;31.00;;;;;;5093100;28;19963;-72
2022/02/20 07:42:55;;;;;;;;;;;23.90;30.90;;;;;;5072775;28;20509;-72
2022/02/20 07:45:23;;;;;;;;;;;23.90;30.90;;;;;;5075648;28;19959;-72
2022/02/20 07:47:53;;;;;;;;;;;23.90;30.90;;;;;;5090741;28;20002;-72
2022/02/20 07:50:21;;;;;;;;;;;23.90;30.90;;;;;;5093423;28;20181;-72
2022/02/20 07:52:48;;;;;;;;;;;23.90;30.90;;;;;;5090433;28;19928;-72
2022/02/20 07:55:16;;;;;;;;;;;23.90;30.90;;;;;;5093343;28;20010;-72
2022/02/20 07:57:43;;;;;;;;;;;23.90;30.90;;;;;;5090848;28;20064;-71
2022/02/20 08:00:11;;;;;;;;;;;23.90;30.90;;;;;;5092673;28;19959;-71
2022/02/20 08:02:39;;;;;;;;;;;23.80;30.90;;;;;;5087234;28;19978;-72
2022/02/20 08:07:58;;;;;;;;;;;23.80;30.90;;;;;;5087480;28;19928;-71
2022/02/20 08:10:25;;;;;;;;;;;23.80;30.90;;;;;;5092738;28;19924;-71
2022/02/20 08:12:53;;;;;;;;;;;23.80;30.90;;;;;;5090164;28;19965;-71
2022/02/20 08:15:20;;;;;;;;;;;23.80;31.50;;;;;;5092526;28;20411;-71
2022/02/20 08:17:48;;;;;;;;;;;23.80;31.00;;;;;;5087141;28;20022;-71
2022/02/20 08:20:16;;;;;;;;;;;23.80;31.00;;;;;;5072922;28;20150;-71
2022/02/20 08:22:43;;;;;;;;;;;23.80;31.00;;;;;;5087584;28;19978;-71
2022/02/20 08:25:11;;;;;;;;;;;23.80;31.00;;;;;;5092374;28;19924;-71
2022/02/20 08:27:39;;;;;;;;;;;23.80;31.00;;;;;;5086304;28;20065;-71
2022/02/20 08:32:57;;;;;;;;;;;23.80;31.00;;;;;;5086705;28;20424;-71
2022/02/20 08:35:24;;;;;;;;;;;23.80;30.90;;;;;;5092466;28;19931;-71
2022/02/20 08:37:51;;;;;;;;;;;23.80;30.90;;;;;;5087221;28;20288;-71
2022/02/20 08:40:19;;;;;;;;;;;23.80;30.90;;;;;;5091960;28;20412;-71
2022/02/20 08:42:46;;;;;;;;;;;23.90;30.90;;;;;;5087813;28;19924;-71
2022/02/20 08:45:14;;;;;;;;;;;23.90;30.90;;;;;;5091231;28;20361;-72
2022/02/20 08:47:41;;;;;;;;;;;23.80;30.80;;;;;;5092714;28;19928;-71
2022/02/20 08:50:10;;;;;;;;;;;23.90;30.80;;;;;;5091904;28;19993;-72
2022/02/20 08:52:38;;;;;;;;;;;23.90;30.80;;;;;;5087600;28;20008;-71
2022/02/20 08:55:06;;;;;;;;;;;23.90;30.80;;;;;;5091817;28;19928;-71
2022/02/20 08:57:33;;;;;;;;;;;23.90;30.70;;;;;;5088406;28;19967;-71
2022/02/20 09:03:04;;;;;;;;;;;23.90;30.70;;;;;;5088923;28;19978;-71
2022/02/20 09:05:31;;;;;;;;;;;24.00;30.70;;;;;;5092481;28;19978;-72
2022/02/20 09:07:58;;;;;;;;;;;24.00;30.70;;;;;;5091351;28;19950;-71
2022/02/20 09:10:25;;;;;;;;;;;24.00;30.60;;;;;;5073333;28;20450;-71
2022/02/20 09:12:52;;;;;;;;;;;24.10;30.70;;;;;;5087568;28;20364;-71
2022/02/20 09:15:19;;;;;;;;;;;24.10;30.70;;;;;;5071284;28;19924;-71
2022/02/20 09:17:47;;;;;;;;;;;24.10;30.70;;;;;;5083711;28;19977;-71
2022/02/20 09:20:14;;;;;;;;;;;24.10;30.60;;;;;;5091269;28;19924;-71
2022/02/20 09:22:42;;;;;;;;;;;24.10;30.60;;;;;;5089045;28;20106;-71
2022/02/20 09:27:57;;;;;;;;;;;24.20;30.60;;;;;;5087964;28;20010;-72
2022/02/20 09:30:24;;;;;;;;;;;24.20;30.60;;;;;;5091596;28;19978;-71
2022/02/20 09:32:51;;;;;;;;;;;24.20;30.60;;;;;;5070509;28;19931;-72
2022/02/20 09:35:18;;;;;;;;;;;24.20;30.50;;;;;;5091198;28;19928;-71
2022/02/20 09:37:45;;;;;;;;;;;24.20;30.50;;;;;;5088818;28;20084;-72
2022/02/20 09:40:12;;;;;;;;;;;24.20;30.50;;;;;;5091108;28;19986;-72
2022/02/20 09:42:40;;;;;;;;;;;24.20;30.40;;;;;;5089273;28;19924;-72
2022/02/20 09:45:07;;;;;;;;;;;24.30;30.50;;;;;;5091069;28;19928;-72
2022/02/20 09:47:39;;;;;;;;;;;24.20;30.40;;;;;;5088787;28;19928;-71
2022/02/20 09:50:06;;;;;;;;;;;24.30;30.50;;;;;;5090765;28;19924;-72
2022/02/20 09:52:33;;;;;;;;;;;24.20;30.40;;;;;;5088601;28;19982;-71
2022/02/20 09:55:00;;;;;;;;;;;24.20;30.50;;;;;;5090716;28;19924;-71
2022/02/20 09:57:28;;;;;;;;;;;24.20;30.50;;;;;;5088401;28;20018;-71
2022/02/20 10:03:02;;;;;;;;;;;24.30;30.50;;;;;;5088337;28;19924;-72
2022/02/20 10:05:29;;;;;;;;;;;24.30;30.40;;;;;;5091167;28;20071;-71
2022/02/20 10:07:56;;;;;;;;;;;24.30;30.40;;;;;;5088007;28;20408;-71
2022/02/20 10:10:28;;;;;;;;;;;24.30;30.30;;;;;;5090414;28;19993;-71
2022/02/20 10:12:57;;;;;;;;;;;24.40;30.40;;;;;;5088335;28;19928;-71
2022/02/20 10:15:26;;;;;;;;;;;24.40;30.30;;;;;;5091023;28;20048;-71
2022/02/20 10:17:58;;;;;;;;;;;24.40;30.30;;;;;;5088022;28;19969;-71
2022/02/20 10:20:25;;;;;;;;;;;24.50;30.30;;;;;;5090651;28;20385;-71
2022/02/20 10:22:52;;;;;;;;;;;24.50;30.30;;;;;;5087528;28;19924;-71
2022/02/20 10:25:19;;;;;;;;;;;24.50;30.20;;;;;;5090879;28;19928;-71
2022/02/20 10:27:48;;;;;;;;;;;24.50;30.20;;;;;;5087709;28;19924;-71
2022/02/20 10:30:25;;;;;;;;;;;24.50;30.20;;;;;;5090257;28;20439;-71
2022/02/20 10:33:04;;;;;;;;;;;24.50;30.20;;;;;;5069750;28;19946;-72
2022/02/20 10:35:36;;;;;;;;;;;24.50;30.10;;;;;;5090579;28;19928;-71
2022/02/20 10:38:07;;;;;;;;;;;24.50;30.10;;;;;;5087514;28;19924;-71
2022/02/20 10:40:34;;;;;;;;;;;24.60;30.20;;;;;;5072064;28;19924;-71
2022/02/20 10:43:03;;;;;;;;;;;24.50;30.10;;;;;;5088026;28;20011;-71
2022/02/20 10:45:33;;;;;;;;;;;24.50;30.10;;;;;;5090247;28;19935;-71
2022/02/20 10:48:04;;;;;;;;;;;24.50;30.10;;;;;;5087580;28;19967;-71
2022/02/20 10:50:32;;;;;;;;;;;24.60;30.10;;;;;;5090007;28;20006;-71
2022/02/20 10:53:08;;;;;;;;;;;24.60;30.20;;;;;;5069299;28;19975;-72
2022/02/20 10:55:37;;;;;;;;;;;24.60;30.20;;;;;;5090512;28;19969;-71
2022/02/20 10:58:08;;;;;;;;;;;24.60;30.20;;;;;;5086797;28;19975;-72
2022/02/20 11:00:35;;;;;;;;;;;24.60;30.10;;;;;;5089907;28;19928;-71
2022/02/20 11:03:08;;;;;;;;;;;24.50;30.00;;;;;;5087397;28;19924;-71
2022/02/20 11:05:35;;;;;;;;;;;24.60;30.10;;;;;;5090138;28;19924;-71
2022/02/20 11:08:02;;;;;;;;;;;24.60;30.10;;;;;;5087447;28;19986;-71
2022/02/20 11:10:30;;;;;;;;;;;24.60;30.10;;;;;;5090170;28;20141;-72
2022/02/20 11:12:58;;;;;;;;;;;24.60;30.10;;;;;;5087231;28;19928;-71
2022/02/20 11:15:26;;;;;;;;;;;24.60;30.20;;;;;;5090315;28;19993;-71
2022/02/20 11:17:54;;;;;;;;;;;24.60;30.10;;;;;;5087044;28;19976;-71
2022/02/20 11:20:22;;;;;;;;;;;24.60;30.10;;;;;;5089975;28;19924;-71
2022/02/20 11:22:51;;;;;;;;;;;24.70;30.10;;;;;;5069352;28;19924;-71
2022/02/20 11:25:18;;;;;;;;;;;24.70;30.00;;;;;;5089797;28;19924;-71
2022/02/20 11:27:45;;;;;;;;;;;24.70;30.00;;;;;;5087231;28;20294;-71
2022/02/20 11:30:12;;;;;;;;;;;24.70;30.00;;;;;;5089536;28;19924;-71
2022/02/20 11:32:41;;;;;;;;;;;24.70;30.00;;;;;;5087790;28;20198;-71
2022/02/20 11:38:07;;;;;;;;;;;24.70;30.00;;;;;;5087061;28;19931;-71
2022/02/20 11:40:54;;;;;;;;;;;24.70;30.00;;;;;;5089631;28;20015;-72
2022/02/20 11:43:22;;;;;;;;;;;24.70;30.00;;;;;;5087034;28;19967;-75
2022/02/20 11:46:03;;;;;;;;;;;24.70;30.00;;;;;;5089638;28;20546;-72
2022/02/20 11:48:31;;;;;;;;;;;24.80;30.00;;;;;;5087116;28;19985;-72
2022/02/20 11:51:12;;;;;;;;;;;24.70;30.00;;;;;;5089380;28;19924;-72
2022/02/20 11:53:39;;;;;;;;;;;24.70;30.00;;;;;;5091484;28;19963;-73
2022/02/20 11:56:06;;;;;;;;;;;24.70;30.00;;;;;;5092893;28;19931;-72
2022/02/20 11:58:34;;;;;;;;;;;24.70;30.00;;;;;;5090304;28;20339;-72
2022/02/20 12:01:05;;;;;;;;;;;24.70;30.00;;;;;;5093380;28;20140;-71
2022/02/20 12:03:52;;;;;;;;;;;24.70;30.00;;;;;;5090702;28;20339;-72
2022/02/20 12:06:21;;;;;;;;;;;24.70;30.00;;;;;;5092746;28;20111;-72
2022/02/20 12:08:50;;;;;;;;;;;24.70;30.00;;;;;;5090654;28;20434;-72
2022/02/20 12:11:23;;;;;;;;;;;24.70;30.00;;;;;;5092336;28;20331;-71
2022/02/20 12:13:54;;;;;;;;;;;24.70;30.00;;;;;;5091187;28;19935;-72
2022/02/20 12:16:23;;;;;;;;;;;24.70;30.00;;;;;;5092247;28;20172;-71
2022/02/20 12:19:10;;;;;;;;;;;24.70;30.00;;;;;;5073351;28;19932;-71
2022/02/20 12:21:57;;;;;;;;;;;24.70;30.00;;;;;;5091968;28;20171;-71
2022/02/20 12:24:29;;;;;;;;;;;24.70;30.00;;;;;;5091196;28;19969;-71
2022/02/20 12:27:00;;;;;;;;;;;24.70;30.00;;;;;;5091094;28;20279;-71
2022/02/20 12:29:37;;;;;;;;;;;24.70;30.00;;;;;;5091726;28;19975;-72
2022/02/20 12:32:09;;;;;;;;;;;24.70;30.00;;;;;;5091099;28;19935;-72
2022/02/20 12:34:43;;;;;;;;;;;24.70;30.00;;;;;;5091819;28;19986;-72
2022/02/20 12:37:11;;;;;;;;;;;24.70;30.00;;;;;;5090989;28;20350;-72
2022/02/20 12:39:38;;;;;;;;;;;24.70;30.00;;;;;;5091258;28;19947;-72
2022/02/20 12:42:05;;;;;;;;;;;24.70;30.00;;;;;;5091560;28;20020;-72
2022/02/20 12:44:32;;;;;;;;;;;24.70;30.00;;;;;;5091195;28;20095;-72
2022/02/20 12:47:00;;;;;;;;;;;24.70;30.00;;;;;;5090404;28;19924;-72
2022/02/20 12:52:48;;;;;;;;;;;24.70;30.00;;;;;;5089478;28;20326;-71
2022/02/20 12:55:19;;;;;;;;;;;24.70;30.00;;;;;;5092137;28;19928;-71
2022/02/20 12:57:47;;;;;;;;;;;24.70;30.00;;;;;;5092241;28;19924;-72
2022/02/20 13:00:18;;;;;;;;;;;24.70;30.00;;;;;;5091771;28;20023;-72
2022/02/20 13:02:46;;;;;;;;;;;24.70;30.00;;;;;;5055228;28;19924;-71
2022/02/20 13:05:34;;;;;;;;;;;24.70;30.00;;;;;;5091674;28;20445;-72
2022/02/20 13:08:07;;;;;;;;;;;24.70;30.00;;;;;;5073656;28;19925;-71
2022/02/20 13:10:36;;;;;;;;;;;24.70;30.00;;;;;;5092052;28;19924;-71
2022/02/20 13:13:05;;;;;;;;;;;24.70;30.00;;;;;;5089022;28;20374;-71
2022/02/20 13:15:37;;;;;;;;;;;24.70;29.90;;;;;;5092103;28;19985;-71
2022/02/20 13:18:07;;;;;;;;;;;24.70;29.90;;;;;;5089108;28;19968;-71
2022/02/20 13:20:39;;;;;;;;;;;24.70;29.90;;;;;;5091970;28;19924;-71
2022/02/20 13:23:17;;;;;;;;;;;24.70;29.80;;;;;;5088831;28;19928;-71
2022/02/20 13:25:45;;;;;;;;;;;24.70;29.90;;;;;;5091956;28;19924;-72
2022/02/20 13:28:14;;;;;;;;;;;24.70;29.90;;;;;;5088757;28;19963;-71
2022/02/20 13:30:42;;;;;;;;;;;24.70;29.90;;;;;;5091837;28;19936;-71
2022/02/20 13:33:17;;;;;;;;;;;24.70;29.90;;;;;;5089479;28;19959;-71
2022/02/20 13:35:44;;;;;;;;;;;24.70;29.90;;;;;;5073612;28;19955;-71
2022/02/20 13:38:13;;;;;;;;;;;24.70;29.90;;;;;;5088655;28;19989;-71
2022/02/20 13:40:43;;;;;;;;;;;24.70;29.80;;;;;;5091233;28;20371;-72
2022/02/20 13:43:13;;;;;;;;;;;24.70;29.80;;;;;;5088844;28;19928;-72
2022/02/20 13:45:54;;;;;;;;;;;24.70;29.80;;;;;;5090978;28;19924;-71
2022/02/20 13:51:54;;;;;;;;;;;24.70;29.80;;;;;;5089780;28;20395;-71
2022/02/20 13:54:22;;;;;;;;;;;24.70;29.80;;;;;;5071894;28;20335;-71
2022/02/20 13:56:50;;;;;;;;;;;24.70;29.80;;;;;;5089859;28;19973;-71
2022/02/20 13:59:25;;;;;;;;;;;24.70;29.80;;;;;;5071391;28;19943;-71
2022/02/20 14:02:03;;;;;;;;;;;24.70;29.80;;;;;;5089788;28;19924;-71
2022/02/20 14:04:32;;;;;;;;;;;24.70;29.80;;;;;;5089327;28;20374;-72
2022/02/20 14:07:07;;;;;;;;;;;24.80;29.80;;;;;;5089456;28;19924;-71
2022/02/20 14:09:39;;;;;;;;;;;24.80;29.80;;;;;;5071206;28;20141;-71
2022/02/20 14:12:19;;;;;;;;;;;24.80;29.80;;;;;;5089204;28;19924;-71
2022/02/20 14:15:07;;;;;;;;;;;24.80;29.80;;;;;;5089646;28;20270;-71
2022/02/20 14:17:56;;;;;;;;;;;24.80;29.80;;;;;;5073767;28;20018;-71
2022/02/20 14:20:25;;;;;;;;;;;24.80;29.80;;;;;;5090639;28;20432;-71
2022/02/20 14:22:53;;;;;;;;;;;24.80;29.80;;;;;;5087516;28;19924;-72
2022/02/20 14:25:21;;;;;;;;;;;24.80;29.80;;;;;;5090467;28;19969;-72
2022/02/20 14:27:51;;;;;;;;;;;24.80;29.90;;;;;;5087756;28;19924;-72
2022/02/20 14:30:30;;;;;;;;;;;24.80;29.90;;;;;;5090190;28;19947;-71
2022/02/20 14:32:58;;;;;;;;;;;24.80;29.90;;;;;;5087457;28;20019;-71
2022/02/20 14:35:29;;;;;;;;;;;24.80;29.90;;;;;;5090444;28;20001;-71
2022/02/20 14:37:57;;;;;;;;;;;24.80;29.90;;;;;;5087603;28;20423;-71
2022/02/20 14:40:25;;;;;;;;;;;24.80;29.90;;;;;;5090092;28;19924;-71
2022/02/20 14:42:53;;;;;;;;;;;24.80;29.90;;;;;;5087295;28;20442;-71
2022/02/20 14:45:22;;;;;;;;;;;24.80;29.90;;;;;;5072528;28;19969;-72
2022/02/20 14:47:50;;;;;;;;;;;24.70;29.90;;;;;;5086982;28;19924;-72
2022/02/20 14:50:17;;;;;;;;;;;24.70;29.90;;;;;;5089751;28;19970;-71
2022/02/20 14:52:44;;;;;;;;;;;24.70;29.90;;;;;;5087474;28;20270;-71
2022/02/20 14:55:44;;;;;;;;;;;24.70;29.80;;;;;;5090073;28;19932;-72
2022/02/20 14:58:11;;;;;;;;;;;24.70;29.80;;;;;;5087099;28;19924;-72
2022/02/20 15:00:38;;;;;;;;;;;24.60;29.80;;;;;;5090556;28;19928;-71
2022/02/20 15:03:05;;;;;;;;;;;24.60;29.80;;;;;;5087409;28;19924;-71
2022/02/20 15:05:32;;;;;;;;;;;24.60;29.80;;;;;;5090365;28;19996;-71
2022/02/20 15:07:59;;;;;;;;;;;24.50;29.80;;;;;;5086982;28;20385;-71
2022/02/20 15:10:26;;;;;;;;;;;24.50;29.80;;;;;;5089936;28;19969;-71
2022/02/20 15:12:53;;;;;;;;;;;24.50;29.80;;;;;;5087423;28;19982;-71
2022/02/20 15:15:20;;;;;;;;;;;24.40;30.20;;;;;;5072031;28;19981;-72
2022/02/20 15:17:47;;;;;;;;;;;24.40;29.90;;;;;;5086899;28;19975;-71
2022/02/20 15:20:15;;;;;;;;;;;24.30;29.90;;;;;;5090012;28;20076;-72
2022/02/20 15:22:42;;;;;;;;;;;24.30;29.90;;;;;;5087679;28;20516;-71